sensor_id;sensor_type;location;lat;lon;timestamp;P1;durP1;ratioP1;P2;durP2;ratioP2
24143;SDS011;12307;50.828;6.080;2022-07-29T00:00:02;1.38;;;0.77;;
24143;SDS011;12307;50.828;6.080;2022-07-29T00:02:30;1.40;;;0.90;;
24143;SDS011;12307;50.828;6.080;2022-07-29T00:04:57;1.20;;;0.80;;
24143;SDS011;12307;50.828;6.080;2022-07-29T00:07:23;1.23;;;0.77;;
24143;SDS011;12307;50.828;6.080;2022-07-29T00:09:49;1.40;;;1.00;;
24143;SDS011;12307;50.828;6.080;2022-07-29T00:12:14;1.48;;;0.77;;
24143;SDS011;12307;50.828;6.080;2022-07-29T00:14:43;1.25;;;0.85;;
24143;SDS011;12307;50.828;6.080;2022-07-29T00:17:09;1.00;;;0.73;;
24143;SDS011;12307;50.828;6.080;2022-07-29T00:19:36;1.85;;;0.80;;
24143;SDS011;12307;50.828;6.080;2022-07-29T00:22:02;1.15;;;0.95;;
24143;SDS011;12307;50.828;6.080;2022-07-29T00:24:28;2.03;;;0.70;;
24143;SDS011;12307;50.828;6.080;2022-07-29T00:26:53;1.70;;;0.88;;
24143;SDS011;12307;50.828;6.080;2022-07-29T00:29:19;0.80;;;0.80;;
24143;SDS011;12307;50.828;6.080;2022-07-29T00:31:45;0.93;;;0.82;;
24143;SDS011;12307;50.828;6.080;2022-07-29T00:34:10;3.13;;;0.90;;
24143;SDS011;12307;50.828;6.080;2022-07-29T00:36:57;1.67;;;0.80;;
24143;SDS011;12307;50.828;6.080;2022-07-29T00:39:23;1.10;;;0.70;;
24143;SDS011;12307;50.828;6.080;2022-07-29T00:41:49;1.55;;;0.90;;
24143;SDS011;12307;50.828;6.080;2022-07-29T00:44:15;0.95;;;0.73;;
24143;SDS011;12307;50.828;6.080;2022-07-29T00:46:41;1.42;;;0.85;;
24143;SDS011;12307;50.828;6.080;2022-07-29T00:49:07;1.00;;;0.70;;
24143;SDS011;12307;50.828;6.080;2022-07-29T00:51:33;0.85;;;0.70;;
24143;SDS011;12307;50.828;6.080;2022-07-29T00:54:01;1.00;;;0.90;;
24143;SDS011;12307;50.828;6.080;2022-07-29T00:56:28;1.05;;;0.88;;
24143;SDS011;12307;50.828;6.080;2022-07-29T00:58:55;1.15;;;0.80;;
24143;SDS011;12307;50.828;6.080;2022-07-29T01:01:21;1.48;;;0.80;;
24143;SDS011;12307;50.828;6.080;2022-07-29T01:03:47;1.05;;;0.82;;
24143;SDS011;12307;50.828;6.080;2022-07-29T01:06:13;1.20;;;0.80;;
24143;SDS011;12307;50.828;6.080;2022-07-29T01:08:39;0.95;;;0.77;;
24143;SDS011;12307;50.828;6.080;2022-07-29T01:11:07;1.60;;;0.90;;
24143;SDS011;12307;50.828;6.080;2022-07-29T01:13:33;1.42;;;1.10;;
24143;SDS011;12307;50.828;6.080;2022-07-29T01:16:01;1.42;;;0.82;;
24143;SDS011;12307;50.828;6.080;2022-07-29T01:18:36;1.20;;;0.90;;
24143;SDS011;12307;50.828;6.080;2022-07-29T01:21:12;1.27;;;0.60;;
24143;SDS011;12307;50.828;6.080;2022-07-29T01:24:03;1.15;;;0.95;;
24143;SDS011;12307;50.828;6.080;2022-07-29T01:26:47;1.30;;;0.77;;
24143;SDS011;12307;50.828;6.080;2022-07-29T01:29:19;1.75;;;0.80;;
24143;SDS011;12307;50.828;6.080;2022-07-29T01:31:51;1.27;;;0.98;;
24143;SDS011;12307;50.828;6.080;2022-07-29T01:34:22;1.10;;;0.80;;
24143;SDS011;12307;50.828;6.080;2022-07-29T01:36:55;1.42;;;0.80;;
24143;SDS011;12307;50.828;6.080;2022-07-29T01:39:31;1.10;;;0.88;;
24143;SDS011;12307;50.828;6.080;2022-07-29T01:42:05;1.40;;;0.93;;
24143;SDS011;12307;50.828;6.080;2022-07-29T01:44:40;1.10;;;0.80;;
24143;SDS011;12307;50.828;6.080;2022-07-29T01:47:12;1.48;;;0.80;;
24143;SDS011;12307;50.828;6.080;2022-07-29T01:49:43;1.20;;;0.80;;
24143;SDS011;12307;50.828;6.080;2022-07-29T01:52:19;0.90;;;0.80;;
24143;SDS011;12307;50.828;6.080;2022-07-29T01:54:50;2.00;;;0.82;;
24143;SDS011;12307;50.828;6.080;2022-07-29T01:57:20;0.93;;;0.80;;
24143;SDS011;12307;50.828;6.080;2022-07-29T01:59:51;2.03;;;0.90;;
24143;SDS011;12307;50.828;6.080;2022-07-29T02:02:19;1.35;;;0.90;;
24143;SDS011;12307;50.828;6.080;2022-07-29T02:04:45;1.08;;;0.85;;
24143;SDS011;12307;50.828;6.080;2022-07-29T02:07:15;1.67;;;0.90;;
24143;SDS011;12307;50.828;6.080;2022-07-29T02:09:44;1.95;;;0.80;;
24143;SDS011;12307;50.828;6.080;2022-07-29T02:12:12;1.42;;;1.00;;
24143;SDS011;12307;50.828;6.080;2022-07-29T02:14:40;1.48;;;0.93;;
24143;SDS011;12307;50.828;6.080;2022-07-29T02:17:11;1.52;;;0.80;;
24143;SDS011;12307;50.828;6.080;2022-07-29T02:19:38;1.30;;;0.85;;
24143;SDS011;12307;50.828;6.080;2022-07-29T02:22:05;1.05;;;0.80;;
24143;SDS011;12307;50.828;6.080;2022-07-29T02:24:32;1.08;;;0.82;;
24143;SDS011;12307;50.828;6.080;2022-07-29T02:27:02;1.45;;;0.85;;
24143;SDS011;12307;50.828;6.080;2022-07-29T02:29:29;2.70;;;0.93;;
24143;SDS011;12307;50.828;6.080;2022-07-29T02:31:56;1.13;;;0.70;;
24143;SDS011;12307;50.828;6.080;2022-07-29T02:34:24;0.95;;;0.80;;
24143;SDS011;12307;50.828;6.080;2022-07-29T02:36:51;1.20;;;0.88;;
24143;SDS011;12307;50.828;6.080;2022-07-29T02:39:19;0.95;;;0.68;;
24143;SDS011;12307;50.828;6.080;2022-07-29T02:41:46;1.58;;;0.77;;
24143;SDS011;12307;50.828;6.080;2022-07-29T02:44:15;1.15;;;0.82;;
24143;SDS011;12307;50.828;6.080;2022-07-29T02:46:43;1.23;;;1.00;;
24143;SDS011;12307;50.828;6.080;2022-07-29T02:49:14;0.98;;;0.90;;
24143;SDS011;12307;50.828;6.080;2022-07-29T02:51:45;1.27;;;0.90;;
24143;SDS011;12307;50.828;6.080;2022-07-29T02:54:19;1.00;;;0.80;;
24143;SDS011;12307;50.828;6.080;2022-07-29T02:56:48;2.55;;;0.98;;
24143;SDS011;12307;50.828;6.080;2022-07-29T02:59:17;1.58;;;0.57;;
24143;SDS011;12307;50.828;6.080;2022-07-29T03:01:47;0.98;;;0.80;;
24143;SDS011;12307;50.828;6.080;2022-07-29T03:04:13;1.60;;;0.88;;
24143;SDS011;12307;50.828;6.080;2022-07-29T03:06:42;1.40;;;1.00;;
24143;SDS011;12307;50.828;6.080;2022-07-29T03:09:10;1.35;;;0.82;;
24143;SDS011;12307;50.828;6.080;2022-07-29T03:11:38;2.13;;;0.88;;
24143;SDS011;12307;50.828;6.080;2022-07-29T03:14:04;1.75;;;0.90;;
24143;SDS011;12307;50.828;6.080;2022-07-29T03:16:31;1.35;;;0.90;;
24143;SDS011;12307;50.828;6.080;2022-07-29T03:18:58;1.02;;;0.80;;
24143;SDS011;12307;50.828;6.080;2022-07-29T03:21:24;1.90;;;0.80;;
24143;SDS011;12307;50.828;6.080;2022-07-29T03:23:51;1.83;;;0.77;;
24143;SDS011;12307;50.828;6.080;2022-07-29T03:26:17;1.35;;;0.82;;
24143;SDS011;12307;50.828;6.080;2022-07-29T03:28:44;1.42;;;0.90;;
24143;SDS011;12307;50.828;6.080;2022-07-29T03:31:09;0.80;;;0.70;;
24143;SDS011;12307;50.828;6.080;2022-07-29T03:33:35;1.10;;;0.90;;
24143;SDS011;12307;50.828;6.080;2022-07-29T03:36:01;1.63;;;0.98;;
24143;SDS011;12307;50.828;6.080;2022-07-29T03:38:27;1.27;;;0.82;;
24143;SDS011;12307;50.828;6.080;2022-07-29T03:40:58;1.00;;;0.90;;
24143;SDS011;12307;50.828;6.080;2022-07-29T03:43:28;0.77;;;0.65;;
24143;SDS011;12307;50.828;6.080;2022-07-29T03:45:57;1.20;;;1.10;;
24143;SDS011;12307;50.828;6.080;2022-07-29T03:48:25;1.00;;;0.77;;
24143;SDS011;12307;50.828;6.080;2022-07-29T03:50:54;2.55;;;0.93;;
24143;SDS011;12307;50.828;6.080;2022-07-29T03:53:20;1.20;;;0.93;;
24143;SDS011;12307;50.828;6.080;2022-07-29T03:55:47;2.15;;;1.00;;
24143;SDS011;12307;50.828;6.080;2022-07-29T03:58:21;1.40;;;1.20;;
24143;SDS011;12307;50.828;6.080;2022-07-29T04:00:48;1.08;;;0.70;;
24143;SDS011;12307;50.828;6.080;2022-07-29T04:03:14;0.80;;;0.73;;
24143;SDS011;12307;50.828;6.080;2022-07-29T04:05:41;2.88;;;1.00;;
24143;SDS011;12307;50.828;6.080;2022-07-29T04:08:06;1.33;;;0.90;;
24143;SDS011;12307;50.828;6.080;2022-07-29T04:10:32;1.15;;;0.73;;
24143;SDS011;12307;50.828;6.080;2022-07-29T04:12:58;0.80;;;0.80;;
24143;SDS011;12307;50.828;6.080;2022-07-29T04:15:25;1.30;;;0.85;;
24143;SDS011;12307;50.828;6.080;2022-07-29T04:17:53;1.48;;;0.90;;
24143;SDS011;12307;50.828;6.080;2022-07-29T04:20:19;1.50;;;0.80;;
24143;SDS011;12307;50.828;6.080;2022-07-29T04:22:44;1.42;;;0.90;;
24143;SDS011;12307;50.828;6.080;2022-07-29T04:25:10;1.45;;;0.80;;
24143;SDS011;12307;50.828;6.080;2022-07-29T04:27:36;1.02;;;0.88;;
24143;SDS011;12307;50.828;6.080;2022-07-29T04:30:22;1.02;;;0.82;;
24143;SDS011;12307;50.828;6.080;2022-07-29T04:32:48;1.17;;;0.95;;
24143;SDS011;12307;50.828;6.080;2022-07-29T04:35:14;1.40;;;0.90;;
24143;SDS011;12307;50.828;6.080;2022-07-29T04:37:40;1.25;;;1.05;;
24143;SDS011;12307;50.828;6.080;2022-07-29T04:40:06;1.13;;;1.00;;
24143;SDS011;12307;50.828;6.080;2022-07-29T04:42:32;0.60;;;0.60;;
24143;SDS011;12307;50.828;6.080;2022-07-29T04:44:58;1.17;;;0.95;;
24143;SDS011;12307;50.828;6.080;2022-07-29T04:47:23;0.73;;;0.73;;
24143;SDS011;12307;50.828;6.080;2022-07-29T04:49:50;1.13;;;0.95;;
24143;SDS011;12307;50.828;6.080;2022-07-29T04:52:16;1.60;;;0.98;;
24143;SDS011;12307;50.828;6.080;2022-07-29T04:54:42;0.98;;;0.88;;
24143;SDS011;12307;50.828;6.080;2022-07-29T04:57:07;1.17;;;0.90;;
24143;SDS011;12307;50.828;6.080;2022-07-29T04:59:33;1.10;;;0.90;;
24143;SDS011;12307;50.828;6.080;2022-07-29T05:01:59;1.80;;;0.82;;
24143;SDS011;12307;50.828;6.080;2022-07-29T05:04:24;0.80;;;0.70;;
24143;SDS011;12307;50.828;6.080;2022-07-29T05:06:51;1.00;;;0.90;;
24143;SDS011;12307;50.828;6.080;2022-07-29T05:09:17;1.73;;;1.10;;
24143;SDS011;12307;50.828;6.080;2022-07-29T05:11:43;1.17;;;0.68;;
24143;SDS011;12307;50.828;6.080;2022-07-29T05:14:08;1.67;;;1.00;;
24143;SDS011;12307;50.828;6.080;2022-07-29T05:16:34;0.85;;;0.80;;
24143;SDS011;12307;50.828;6.080;2022-07-29T05:19:00;1.30;;;1.00;;
24143;SDS011;12307;50.828;6.080;2022-07-29T05:21:26;1.48;;;0.82;;
24143;SDS011;12307;50.828;6.080;2022-07-29T05:23:53;0.80;;;0.80;;
24143;SDS011;12307;50.828;6.080;2022-07-29T05:26:19;0.95;;;0.70;;
24143;SDS011;12307;50.828;6.080;2022-07-29T05:28:44;1.75;;;1.00;;
24143;SDS011;12307;50.828;6.080;2022-07-29T05:31:10;1.95;;;1.05;;
24143;SDS011;12307;50.828;6.080;2022-07-29T05:33:36;1.60;;;0.90;;
24143;SDS011;12307;50.828;6.080;2022-07-29T05:36:01;1.45;;;0.90;;
24143;SDS011;12307;50.828;6.080;2022-07-29T05:38:29;1.50;;;1.00;;
24143;SDS011;12307;50.828;6.080;2022-07-29T05:40:57;1.08;;;0.80;;
24143;SDS011;12307;50.828;6.080;2022-07-29T05:43:24;1.15;;;0.80;;
24143;SDS011;12307;50.828;6.080;2022-07-29T05:45:49;1.63;;;0.80;;
24143;SDS011;12307;50.828;6.080;2022-07-29T05:48:15;2.63;;;0.80;;
24143;SDS011;12307;50.828;6.080;2022-07-29T05:50:41;1.02;;;0.82;;
24143;SDS011;12307;50.828;6.080;2022-07-29T05:53:06;1.42;;;0.80;;
24143;SDS011;12307;50.828;6.080;2022-07-29T05:55:32;1.73;;;0.90;;
24143;SDS011;12307;50.828;6.080;2022-07-29T05:57:59;1.42;;;0.80;;
24143;SDS011;12307;50.828;6.080;2022-07-29T06:00:25;2.22;;;1.02;;
24143;SDS011;12307;50.828;6.080;2022-07-29T06:02:50;2.13;;;1.08;;
24143;SDS011;12307;50.828;6.080;2022-07-29T06:05:16;2.15;;;0.82;;
24143;SDS011;12307;50.828;6.080;2022-07-29T06:07:42;1.63;;;0.85;;
24143;SDS011;12307;50.828;6.080;2022-07-29T06:10:08;3.63;;;1.00;;
24143;SDS011;12307;50.828;6.080;2022-07-29T06:12:34;1.88;;;0.98;;
24143;SDS011;12307;50.828;6.080;2022-07-29T06:15:01;1.85;;;0.80;;
24143;SDS011;12307;50.828;6.080;2022-07-29T06:17:27;0.80;;;0.77;;
24143;SDS011;12307;50.828;6.080;2022-07-29T06:19:53;1.17;;;0.90;;
24143;SDS011;12307;50.828;6.080;2022-07-29T06:22:18;1.50;;;1.00;;
24143;SDS011;12307;50.828;6.080;2022-07-29T06:24:44;1.70;;;0.88;;
24143;SDS011;12307;50.828;6.080;2022-07-29T06:27:10;1.30;;;0.93;;
24143;SDS011;12307;50.828;6.080;2022-07-29T06:29:36;0.77;;;0.75;;
24143;SDS011;12307;50.828;6.080;2022-07-29T06:32:03;1.33;;;0.80;;
24143;SDS011;12307;50.828;6.080;2022-07-29T06:34:30;2.38;;;0.95;;
24143;SDS011;12307;50.828;6.080;2022-07-29T06:36:56;2.25;;;1.20;;
24143;SDS011;12307;50.828;6.080;2022-07-29T06:39:21;3.58;;;1.60;;
24143;SDS011;12307;50.828;6.080;2022-07-29T06:41:47;3.50;;;1.40;;
24143;SDS011;12307;50.828;6.080;2022-07-29T06:44:14;2.72;;;1.67;;
24143;SDS011;12307;50.828;6.080;2022-07-29T06:46:40;6.80;;;1.70;;
24143;SDS011;12307;50.828;6.080;2022-07-29T06:49:07;4.80;;;1.65;;
24143;SDS011;12307;50.828;6.080;2022-07-29T06:51:33;3.70;;;1.80;;
24143;SDS011;12307;50.828;6.080;2022-07-29T06:53:59;4.57;;;1.90;;
24143;SDS011;12307;50.828;6.080;2022-07-29T06:56:25;4.57;;;1.60;;
24143;SDS011;12307;50.828;6.080;2022-07-29T06:58:51;4.85;;;1.58;;
24143;SDS011;12307;50.828;6.080;2022-07-29T07:01:17;3.47;;;1.83;;
24143;SDS011;12307;50.828;6.080;2022-07-29T07:03:43;3.80;;;1.50;;
24143;SDS011;12307;50.828;6.080;2022-07-29T07:06:10;3.28;;;1.67;;
24143;SDS011;12307;50.828;6.080;2022-07-29T07:08:36;4.78;;;1.73;;
24143;SDS011;12307;50.828;6.080;2022-07-29T07:11:01;4.45;;;1.83;;
24143;SDS011;12307;50.828;6.080;2022-07-29T07:13:28;7.53;;;1.70;;
24143;SDS011;12307;50.828;6.080;2022-07-29T07:15:59;4.82;;;1.92;;
24143;SDS011;12307;50.828;6.080;2022-07-29T07:18:25;6.13;;;1.92;;
24143;SDS011;12307;50.828;6.080;2022-07-29T07:20:50;4.55;;;1.60;;
24143;SDS011;12307;50.828;6.080;2022-07-29T07:23:17;4.35;;;1.38;;
24143;SDS011;12307;50.828;6.080;2022-07-29T07:25:43;3.10;;;1.52;;
24143;SDS011;12307;50.828;6.080;2022-07-29T07:28:09;2.10;;;1.33;;
24143;SDS011;12307;50.828;6.080;2022-07-29T07:30:34;5.30;;;1.80;;
24143;SDS011;12307;50.828;6.080;2022-07-29T07:33:00;4.60;;;1.85;;
24143;SDS011;12307;50.828;6.080;2022-07-29T07:35:26;2.80;;;1.55;;
24143;SDS011;12307;50.828;6.080;2022-07-29T07:37:52;4.60;;;1.80;;
24143;SDS011;12307;50.828;6.080;2022-07-29T07:40:19;5.97;;;1.90;;
24143;SDS011;12307;50.828;6.080;2022-07-29T07:42:45;6.05;;;1.58;;
24143;SDS011;12307;50.828;6.080;2022-07-29T07:45:11;2.38;;;1.40;;
24143;SDS011;12307;50.828;6.080;2022-07-29T07:47:37;4.38;;;1.63;;
24143;SDS011;12307;50.828;6.080;2022-07-29T07:50:04;6.82;;;1.58;;
24143;SDS011;12307;50.828;6.080;2022-07-29T07:52:31;8.15;;;2.00;;
24143;SDS011;12307;50.828;6.080;2022-07-29T07:54:59;7.03;;;1.83;;
24143;SDS011;12307;50.828;6.080;2022-07-29T07:57:27;7.57;;;1.83;;
24143;SDS011;12307;50.828;6.080;2022-07-29T07:59:53;7.47;;;1.52;;
24143;SDS011;12307;50.828;6.080;2022-07-29T08:02:18;4.85;;;1.67;;
24143;SDS011;12307;50.828;6.080;2022-07-29T08:04:44;4.85;;;1.67;;
24143;SDS011;12307;50.828;6.080;2022-07-29T08:07:10;6.80;;;2.10;;
24143;SDS011;12307;50.828;6.080;2022-07-29T08:09:35;6.32;;;2.00;;
24143;SDS011;12307;50.828;6.080;2022-07-29T08:12:01;7.10;;;1.92;;
24143;SDS011;12307;50.828;6.080;2022-07-29T08:14:30;5.80;;;1.80;;
24143;SDS011;12307;50.828;6.080;2022-07-29T08:16:56;3.10;;;1.35;;
24143;SDS011;12307;50.828;6.080;2022-07-29T08:19:22;6.90;;;1.80;;
24143;SDS011;12307;50.828;6.080;2022-07-29T08:21:47;5.80;;;1.65;;
24143;SDS011;12307;50.828;6.080;2022-07-29T08:24:13;7.45;;;1.73;;
24143;SDS011;12307;50.828;6.080;2022-07-29T08:26:57;4.90;;;1.73;;
24143;SDS011;12307;50.828;6.080;2022-07-29T08:29:23;4.10;;;1.80;;
24143;SDS011;12307;50.828;6.080;2022-07-29T08:31:50;6.38;;;2.20;;
24143;SDS011;12307;50.828;6.080;2022-07-29T08:34:16;6.45;;;1.83;;
24143;SDS011;12307;50.828;6.080;2022-07-29T08:36:41;4.18;;;1.98;;
24143;SDS011;12307;50.828;6.080;2022-07-29T08:39:07;4.28;;;2.05;;
24143;SDS011;12307;50.828;6.080;2022-07-29T08:41:33;8.40;;;2.20;;
24143;SDS011;12307;50.828;6.080;2022-07-29T08:43:58;9.63;;;2.28;;
24143;SDS011;12307;50.828;6.080;2022-07-29T08:46:24;5.55;;;2.40;;
24143;SDS011;12307;50.828;6.080;2022-07-29T08:48:52;9.85;;;2.83;;
24143;SDS011;12307;50.828;6.080;2022-07-29T08:51:18;5.13;;;2.83;;
24143;SDS011;12307;50.828;6.080;2022-07-29T08:53:46;3.92;;;2.03;;
24143;SDS011;12307;50.828;6.080;2022-07-29T08:56:14;6.38;;;2.40;;
24143;SDS011;12307;50.828;6.080;2022-07-29T08:58:41;5.38;;;2.45;;
24143;SDS011;12307;50.828;6.080;2022-07-29T09:01:07;5.90;;;2.42;;
24143;SDS011;12307;50.828;6.080;2022-07-29T09:03:35;7.32;;;2.70;;
24143;SDS011;12307;50.828;6.080;2022-07-29T09:06:05;5.72;;;2.40;;
24143;SDS011;12307;50.828;6.080;2022-07-29T09:08:31;6.18;;;2.35;;
24143;SDS011;12307;50.828;6.080;2022-07-29T09:10:57;6.03;;;2.30;;
24143;SDS011;12307;50.828;6.080;2022-07-29T09:13:25;11.60;;;2.28;;
24143;SDS011;12307;50.828;6.080;2022-07-29T09:15:51;3.92;;;2.15;;
24143;SDS011;12307;50.828;6.080;2022-07-29T09:18:32;5.05;;;2.20;;
24143;SDS011;12307;50.828;6.080;2022-07-29T09:20:59;7.57;;;1.90;;
24143;SDS011;12307;50.828;6.080;2022-07-29T09:26:39;5.72;;;2.03;;
24143;SDS011;12307;50.828;6.080;2022-07-29T09:29:09;4.80;;;2.40;;
24143;SDS011;12307;50.828;6.080;2022-07-29T09:31:36;7.55;;;2.30;;
24143;SDS011;12307;50.828;6.080;2022-07-29T09:34:04;5.88;;;2.33;;
24143;SDS011;12307;50.828;6.080;2022-07-29T09:36:30;5.03;;;2.35;;
24143;SDS011;12307;50.828;6.080;2022-07-29T09:39:02;7.30;;;2.35;;
24143;SDS011;12307;50.828;6.080;2022-07-29T09:41:28;5.95;;;2.35;;
24143;SDS011;12307;50.828;6.080;2022-07-29T09:43:56;6.65;;;2.42;;
24143;SDS011;12307;50.828;6.080;2022-07-29T09:46:23;4.97;;;2.28;;
24143;SDS011;12307;50.828;6.080;2022-07-29T09:49:05;7.13;;;2.30;;
24143;SDS011;12307;50.828;6.080;2022-07-29T09:51:32;7.18;;;2.35;;
24143;SDS011;12307;50.828;6.080;2022-07-29T09:53:58;11.25;;;2.80;;
24143;SDS011;12307;50.828;6.080;2022-07-29T09:56:37;5.97;;;2.30;;
24143;SDS011;12307;50.828;6.080;2022-07-29T09:59:06;3.30;;;1.90;;
24143;SDS011;12307;50.828;6.080;2022-07-29T10:01:33;3.15;;;2.15;;
24143;SDS011;12307;50.828;6.080;2022-07-29T10:03:59;5.18;;;2.30;;
24143;SDS011;12307;50.828;6.080;2022-07-29T10:06:25;5.70;;;2.08;;
24143;SDS011;12307;50.828;6.080;2022-07-29T10:08:51;6.57;;;2.20;;
24143;SDS011;12307;50.828;6.080;2022-07-29T10:11:18;4.35;;;2.40;;
24143;SDS011;12307;50.828;6.080;2022-07-29T10:13:46;4.05;;;2.22;;
24143;SDS011;12307;50.828;6.080;2022-07-29T10:16:15;6.80;;;2.63;;
24143;SDS011;12307;50.828;6.080;2022-07-29T10:18:41;7.20;;;2.70;;
24143;SDS011;12307;50.828;6.080;2022-07-29T10:21:08;6.32;;;2.30;;
24143;SDS011;12307;50.828;6.080;2022-07-29T10:23:35;4.82;;;2.30;;
24143;SDS011;12307;50.828;6.080;2022-07-29T10:26:01;8.85;;;2.25;;
24143;SDS011;12307;50.828;6.080;2022-07-29T10:28:27;7.22;;;1.90;;
24143;SDS011;12307;50.828;6.080;2022-07-29T10:30:57;6.43;;;2.20;;
24143;SDS011;12307;50.828;6.080;2022-07-29T10:33:35;6.63;;;2.05;;
24143;SDS011;12307;50.828;6.080;2022-07-29T10:36:14;4.78;;;2.28;;
24143;SDS011;12307;50.828;6.080;2022-07-29T10:38:51;5.03;;;2.10;;
24143;SDS011;12307;50.828;6.080;2022-07-29T10:41:29;6.63;;;2.15;;
24143;SDS011;12307;50.828;6.080;2022-07-29T10:44:03;4.60;;;2.28;;
24143;SDS011;12307;50.828;6.080;2022-07-29T10:46:34;9.70;;;2.70;;
24143;SDS011;12307;50.828;6.080;2022-07-29T10:49:06;4.90;;;2.63;;
24143;SDS011;12307;50.828;6.080;2022-07-29T10:51:53;7.18;;;2.50;;
24143;SDS011;12307;50.828;6.080;2022-07-29T10:54:35;4.38;;;2.20;;
24143;SDS011;12307;50.828;6.080;2022-07-29T10:57:10;6.78;;;2.10;;
24143;SDS011;12307;50.828;6.080;2022-07-29T10:59:41;5.85;;;2.30;;
24143;SDS011;12307;50.828;6.080;2022-07-29T11:05:10;8.38;;;3.97;;
24143;SDS011;12307;50.828;6.080;2022-07-29T11:07:38;8.68;;;3.53;;
24143;SDS011;12307;50.828;6.080;2022-07-29T11:12:54;6.85;;;3.30;;
24143;SDS011;12307;50.828;6.080;2022-07-29T11:15:20;5.50;;;2.75;;
24143;SDS011;12307;50.828;6.080;2022-07-29T11:18:03;6.68;;;2.83;;
24143;SDS011;12307;50.828;6.080;2022-07-29T11:20:35;6.47;;;2.83;;
24143;SDS011;12307;50.828;6.080;2022-07-29T11:23:23;6.55;;;3.42;;
24143;SDS011;12307;50.828;6.080;2022-07-29T11:28:59;7.07;;;3.03;;
24143;SDS011;12307;50.828;6.080;2022-07-29T11:31:35;6.63;;;2.70;;
24143;SDS011;12307;50.828;6.080;2022-07-29T11:39:44;5.32;;;2.60;;
24143;SDS011;12307;50.828;6.080;2022-07-29T11:45:22;5.95;;;2.55;;
24143;SDS011;12307;50.828;6.080;2022-07-29T11:47:54;5.55;;;2.63;;
24143;SDS011;12307;50.828;6.080;2022-07-29T11:50:26;9.15;;;2.50;;
24143;SDS011;12307;50.828;6.080;2022-07-29T11:52:59;5.47;;;2.50;;
24143;SDS011;12307;50.828;6.080;2022-07-29T11:55:25;6.10;;;2.80;;
24143;SDS011;12307;50.828;6.080;2022-07-29T11:57:52;4.00;;;2.20;;
24143;SDS011;12307;50.828;6.080;2022-07-29T12:00:23;6.10;;;2.38;;
24143;SDS011;12307;50.828;6.080;2022-07-29T12:02:53;5.70;;;2.78;;
24143;SDS011;12307;50.828;6.080;2022-07-29T12:05:20;4.47;;;2.47;;
24143;SDS011;12307;50.828;6.080;2022-07-29T12:07:46;3.90;;;2.35;;
24143;SDS011;12307;50.828;6.080;2022-07-29T12:10:14;5.60;;;2.47;;
24143;SDS011;12307;50.828;6.080;2022-07-29T12:12:40;4.15;;;2.10;;
24143;SDS011;12307;50.828;6.080;2022-07-29T12:15:13;5.35;;;2.55;;
24143;SDS011;12307;50.828;6.080;2022-07-29T12:17:40;5.85;;;2.70;;
24143;SDS011;12307;50.828;6.080;2022-07-29T12:20:06;4.35;;;2.40;;
24143;SDS011;12307;50.828;6.080;2022-07-29T12:22:35;7.25;;;2.63;;
24143;SDS011;12307;50.828;6.080;2022-07-29T12:25:03;4.82;;;2.20;;
24143;SDS011;12307;50.828;6.080;2022-07-29T12:27:32;6.18;;;2.20;;
24143;SDS011;12307;50.828;6.080;2022-07-29T12:29:58;4.57;;;2.30;;
24143;SDS011;12307;50.828;6.080;2022-07-29T12:32:30;6.55;;;2.70;;
24143;SDS011;12307;50.828;6.080;2022-07-29T12:34:57;8.18;;;2.30;;
24143;SDS011;12307;50.828;6.080;2022-07-29T12:37:23;8.25;;;3.25;;
24143;SDS011;12307;50.828;6.080;2022-07-29T12:39:49;7.43;;;3.20;;
24143;SDS011;12307;50.828;6.080;2022-07-29T12:42:17;8.57;;;2.92;;
24143;SDS011;12307;50.828;6.080;2022-07-29T12:44:45;5.30;;;2.70;;
24143;SDS011;12307;50.828;6.080;2022-07-29T12:47:11;6.18;;;2.97;;
24143;SDS011;12307;50.828;6.080;2022-07-29T12:49:37;5.07;;;2.75;;
24143;SDS011;12307;50.828;6.080;2022-07-29T12:54:50;5.57;;;2.85;;
24143;SDS011;12307;50.828;6.080;2022-07-29T12:57:16;3.90;;;2.30;;
24143;SDS011;12307;50.828;6.080;2022-07-29T12:59:42;7.07;;;2.50;;
24143;SDS011;12307;50.828;6.080;2022-07-29T13:02:19;2.80;;;2.10;;
24143;SDS011;12307;50.828;6.080;2022-07-29T13:04:54;5.05;;;2.33;;
24143;SDS011;12307;50.828;6.080;2022-07-29T13:07:23;4.32;;;2.30;;
24143;SDS011;12307;50.828;6.080;2022-07-29T13:09:50;5.53;;;2.22;;
24143;SDS011;12307;50.828;6.080;2022-07-29T13:12:16;4.32;;;2.20;;
24143;SDS011;12307;50.828;6.080;2022-07-29T13:14:43;4.53;;;2.20;;
24143;SDS011;12307;50.828;6.080;2022-07-29T13:17:13;5.00;;;2.40;;
24143;SDS011;12307;50.828;6.080;2022-07-29T13:19:41;3.90;;;2.03;;
24143;SDS011;12307;50.828;6.080;2022-07-29T13:22:08;3.45;;;2.30;;
24143;SDS011;12307;50.828;6.080;2022-07-29T13:24:44;4.68;;;2.25;;
24143;SDS011;12307;50.828;6.080;2022-07-29T13:27:11;5.13;;;2.20;;
24143;SDS011;12307;50.828;6.080;2022-07-29T13:29:38;3.67;;;2.30;;
24143;SDS011;12307;50.828;6.080;2022-07-29T13:32:05;4.78;;;2.22;;
24143;SDS011;12307;50.828;6.080;2022-07-29T13:34:32;7.05;;;2.05;;
24143;SDS011;12307;50.828;6.080;2022-07-29T13:36:58;5.65;;;2.30;;
24143;SDS011;12307;50.828;6.080;2022-07-29T13:39:23;3.67;;;2.20;;
24143;SDS011;12307;50.828;6.080;2022-07-29T13:41:49;3.53;;;2.22;;
24143;SDS011;12307;50.828;6.080;2022-07-29T13:44:15;4.95;;;2.17;;
24143;SDS011;12307;50.828;6.080;2022-07-29T13:46:41;4.18;;;2.10;;
24143;SDS011;12307;50.828;6.080;2022-07-29T13:49:07;3.90;;;2.15;;
24143;SDS011;12307;50.828;6.080;2022-07-29T13:51:34;3.63;;;2.35;;
24143;SDS011;12307;50.828;6.080;2022-07-29T13:54:00;2.40;;;1.90;;
24143;SDS011;12307;50.828;6.080;2022-07-29T13:56:25;4.85;;;2.00;;
24143;SDS011;12307;50.828;6.080;2022-07-29T13:58:51;3.83;;;2.10;;
24143;SDS011;12307;50.828;6.080;2022-07-29T14:01:17;4.43;;;1.85;;
24143;SDS011;12307;50.828;6.080;2022-07-29T14:03:42;2.58;;;1.70;;
24143;SDS011;12307;50.828;6.080;2022-07-29T14:06:08;4.45;;;2.00;;
24143;SDS011;12307;50.828;6.080;2022-07-29T14:08:35;2.88;;;2.10;;
24143;SDS011;12307;50.828;6.080;2022-07-29T14:11:01;5.13;;;1.90;;
24143;SDS011;12307;50.828;6.080;2022-07-29T14:13:26;2.88;;;2.30;;
24143;SDS011;12307;50.828;6.080;2022-07-29T14:15:52;3.85;;;2.10;;
24143;SDS011;12307;50.828;6.080;2022-07-29T14:18:18;9.05;;;2.15;;
24143;SDS011;12307;50.828;6.080;2022-07-29T14:20:44;3.33;;;1.85;;
24143;SDS011;12307;50.828;6.080;2022-07-29T14:23:09;3.97;;;1.80;;
24143;SDS011;12307;50.828;6.080;2022-07-29T14:25:36;3.85;;;2.03;;
24143;SDS011;12307;50.828;6.080;2022-07-29T14:28:02;2.92;;;1.77;;
24143;SDS011;12307;50.828;6.080;2022-07-29T14:30:28;3.05;;;2.00;;
24143;SDS011;12307;50.828;6.080;2022-07-29T14:32:54;2.42;;;2.00;;
24143;SDS011;12307;50.828;6.080;2022-07-29T14:35:19;3.45;;;2.15;;
24143;SDS011;12307;50.828;6.080;2022-07-29T14:37:45;4.10;;;1.92;;
24143;SDS011;12307;50.828;6.080;2022-07-29T14:40:11;3.33;;;1.88;;
24143;SDS011;12307;50.828;6.080;2022-07-29T14:42:38;3.92;;;2.03;;
24143;SDS011;12307;50.828;6.080;2022-07-29T14:45:05;3.83;;;1.95;;
24143;SDS011;12307;50.828;6.080;2022-07-29T14:47:31;2.03;;;1.55;;
24143;SDS011;12307;50.828;6.080;2022-07-29T14:49:57;2.35;;;2.10;;
24143;SDS011;12307;50.828;6.080;2022-07-29T14:52:23;3.10;;;2.03;;
24143;SDS011;12307;50.828;6.080;2022-07-29T14:54:49;3.25;;;2.08;;
24143;SDS011;12307;50.828;6.080;2022-07-29T14:57:17;3.92;;;2.10;;
24143;SDS011;12307;50.828;6.080;2022-07-29T14:59:44;3.13;;;1.70;;
24143;SDS011;12307;50.828;6.080;2022-07-29T15:02:10;3.58;;;1.90;;
24143;SDS011;12307;50.828;6.080;2022-07-29T15:04:35;4.45;;;1.67;;
24143;SDS011;12307;50.828;6.080;2022-07-29T15:07:01;3.47;;;2.10;;
24143;SDS011;12307;50.828;6.080;2022-07-29T15:09:27;3.38;;;1.80;;
24143;SDS011;12307;50.828;6.080;2022-07-29T15:11:53;5.03;;;2.10;;
24143;SDS011;12307;50.828;6.080;2022-07-29T15:14:18;3.30;;;2.00;;